Time;durP1;ratioP1;P1;durP2;ratioP2;P2;SDS_P1;SDS_P2;PMS_P1;PMS_P2;Temp;Humidity;BMP_temperature;BMP_pressure;BME280_temperature;BME280_humidity;BME280_pressure;Samples;Min_cycle;Max_cycle;Signal;HPM_P1;HPM_P2
2024/01/30 00:04:12;;;;;;;55.80;30.40;;;;;;;2.02;69.12;100903.11;231862;204;138450;-61
2024/01/30 00:09:15;;;;;;;51.60;30.20;;;;;;;2.07;69.11;100899.30;231885;198;155130;-62
2024/01/30 00:14:18;;;;;;;50.80;31.80;;;;;;;2.13;68.87;100890.38;231948;202;137499;-62
2024/01/30 00:19:22;;;;;;;53.70;32.50;;;;;;;2.17;68.80;100891.09;231997;197;137913;-62
2024/01/30 00:24:25;;;;;;;54.70;32.40;;;;;;;2.21;68.84;100890.91;232098;204;154195;-61
2024/01/30 00:29:30;;;;;;;52.80;31.40;;;;;;;2.21;68.65;100895.46;231936;202;138591;-61
2024/01/30 00:34:34;;;;;;;52.40;32.10;;;;;;;2.19;68.48;100896.86;231867;198;138330;-61
2024/01/30 00:39:37;;;;;;;57.60;33.00;;;;;;;2.08;68.79;100891.95;231928;198;155351;-62
2024/01/30 00:44:40;;;;;;;55.60;32.50;;;;;;;2.07;68.87;100890.72;231752;202;138704;-62
2024/01/30 00:49:43;;;;;;;50.80;31.50;;;;;;;2.05;68.75;100890.35;231812;203;138173;-62
2024/01/30 00:54:47;;;;;;;53.80;31.60;;;;;;;2.01;68.90;100888.26;232051;201;153598;-62
2024/01/30 00:59:50;;;;;;;54.50;31.50;;;;;;;1.95;68.89;100883.69;231867;204;138016;-63
2024/01/30 01:04:53;;;;;;;60.20;32.00;;;;;;;1.89;68.99;100879.29;231898;204;139438;-62
2024/01/30 01:09:57;;;;;;;55.40;33.30;;;;;;;1.92;69.08;100873.52;231859;197;153217;-62
2024/01/30 01:15:00;;;;;;;52.00;32.30;;;;;;;1.87;69.04;100874.73;231828;201;138369;-63
2024/01/30 01:20:05;;;;;;;56.60;33.40;;;;;;;1.83;69.04;100872.96;231907;204;138529;-61
2024/01/30 01:25:10;;;;;;;55.00;32.50;;;;;;;1.81;69.20;100873.32;231810;204;154068;-61
2024/01/30 01:30:18;;;;;;;62.20;35.30;;;;;;;1.81;69.09;100871.03;231900;198;138943;-61
2024/01/30 01:35:25;;;;;;;58.50;35.40;;;;;;;1.78;68.92;100865.77;231787;204;137923;-62
2024/01/30 01:40:28;;;;;;;58.30;34.10;;;;;;;1.73;68.89;100861.73;231734;198;154084;-61
2024/01/30 01:45:31;;;;;;;60.90;35.00;;;;;;;1.74;68.97;100864.38;231910;201;137892;-62
2024/01/30 01:50:36;;;;;;;63.40;35.60;;;;;;;1.70;68.72;100864.35;231762;204;138398;-63
2024/01/30 01:55:39;;;;;;;67.30;37.60;;;;;;;1.66;68.76;100868.89;231926;204;153144;-61
2024/01/30 02:00:42;;;;;;;59.60;35.10;;;;;;;1.61;68.71;100870.27;232057;198;138250;-61
2024/01/30 02:05:46;;;;;;;57.90;32.70;;;;;;;1.57;68.90;100863.77;231885;204;142562;-62
2024/01/30 02:10:50;;;;;;;58.60;31.80;;;;;;;1.58;69.01;100854.33;231889;199;154846;-61
2024/01/30 02:15:53;;;;;;;57.70;35.20;;;;;;;1.64;68.82;100848.95;231750;198;139144;-61
2024/01/30 02:20:58;;;;;;;61.50;35.40;;;;;;;1.76;68.69;100850.02;232076;204;137702;-60
2024/01/30 02:26:02;;;;;;;62.00;35.30;;;;;;;1.77;68.41;100845.30;231841;204;153753;-61
2024/01/30 02:31:05;;;;;;;59.60;33.40;;;;;;;1.73;68.43;100847.38;231983;197;138361;-63
2024/01/30 02:36:08;;;;;;;63.60;35.00;;;;;;;1.75;68.40;100846.69;232133;202;138335;-61
2024/01/30 02:41:12;;;;;;;62.80;32.70;;;;;;;1.73;68.18;100842.84;231762;204;153744;-61
2024/01/30 02:46:15;;;;;;;60.90;34.50;;;;;;;1.61;68.10;100830.38;231985;202;138156;-62
2024/01/30 02:51:18;;;;;;;58.60;33.30;;;;;;;1.60;68.22;100824.09;232026;198;137333;-62
2024/01/30 02:56:22;;;;;;;64.80;34.50;;;;;;;1.58;68.34;100823.20;231969;204;153066;-62
2024/01/30 03:01:25;;;;;;;59.10;34.00;;;;;;;1.56;68.15;100823.55;231838;204;138696;-61
2024/01/30 03:06:28;;;;;;;58.90;33.60;;;;;;;1.52;68.30;100823.52;232044;204;138338;-61
2024/01/30 03:11:31;;;;;;;58.90;33.40;;;;;;;1.48;68.22;100817.39;231839;198;153201;-61
2024/01/30 03:16:34;;;;;;;64.70;35.40;;;;;;;1.43;68.47;100821.73;231987;201;138261;-61
2024/01/30 03:21:37;;;;;;;57.40;32.40;;;;;;;1.39;68.33;100829.42;231936;198;137593;-62
2024/01/30 03:26:41;;;;;;;65.10;34.60;;;;;;;1.36;68.53;100829.59;232055;200;153261;-61
2024/01/30 03:31:44;;;;;;;63.80;35.00;;;;;;;1.36;68.38;100825.75;231839;200;138694;-63
2024/01/30 03:36:48;;;;;;;59.90;33.60;;;;;;;1.35;68.48;100830.11;232120;204;137743;-60
2024/01/30 03:41:51;;;;;;;60.30;34.60;;;;;;;1.33;68.27;100834.65;232047;198;153250;-61
2024/01/30 03:46:54;;;;;;;63.70;35.70;;;;;;;1.31;68.21;100832.53;231995;204;138514;-61
2024/01/30 03:51:57;;;;;;;65.30;35.50;;;;;;;1.31;68.09;100829.73;232054;204;138335;-61
2024/01/30 03:57:00;;;;;;;68.80;37.40;;;;;;;1.27;68.02;100824.30;231631;198;158492;-63
2024/01/30 04:02:04;;;;;;;66.70;37.60;;;;;;;1.21;68.01;100820.61;232044;204;140379;-62
2024/01/30 04:07:07;;;;;;;66.20;36.60;;;;;;;1.17;67.95;100818.65;232061;204;138298;-61
2024/01/30 04:12:10;;;;;;;70.80;37.50;;;;;;;1.10;67.91;100815.83;232055;198;153987;-61
2024/01/30 04:17:13;;;;;;;65.70;35.50;;;;;;;1.05;68.22;100813.00;231952;198;138169;-61
2024/01/30 04:22:17;;;;;;;64.60;34.20;;;;;;;1.07;68.13;100818.61;232061;197;141355;-61
2024/01/30 04:27:20;;;;;;;61.30;35.30;;;;;;;1.11;68.09;100818.63;232057;197;153993;-61
2024/01/30 04:32:23;;;;;;;60.50;36.00;;;;;;;1.20;67.87;100819.71;231977;199;138056;-61
2024/01/30 04:37:27;;;;;;;62.80;35.40;;;;;;;1.23;67.75;100824.80;232008;198;141518;-61
2024/01/30 04:42:30;;;;;;;60.70;35.40;;;;;;;1.23;67.77;100828.14;232129;204;154803;-61
2024/01/30 04:47:33;;;;;;;63.80;36.00;;;;;;;1.25;67.78;100826.22;232018;198;139373;-62
2024/01/30 04:52:37;;;;;;;61.10;34.70;;;;;;;1.30;67.79;100832.70;231906;198;138773;-61
2024/01/30 04:57:40;;;;;;;56.50;33.10;;;;;;;1.28;67.40;100830.77;231842;201;155264;-61
2024/01/30 05:02:43;;;;;;;60.30;34.80;;;;;;;1.18;67.54;100824.09;231823;202;137566;-63
2024/01/30 05:07:46;;;;;;;61.70;35.30;;;;;;;1.12;67.62;100828.26;232102;204;138777;-63
2024/01/30 05:12:49;;;;;;;71.50;39.60;;;;;;;1.12;67.75;100831.04;232068;204;155321;-62
2024/01/30 05:17:53;;;;;;;61.50;35.60;;;;;;;1.16;67.56;100841.20;232022;197;139127;-61
2024/01/30 05:22:56;;;;;;;64.50;36.20;;;;;;;1.19;67.54;100834.23;231978;204;138236;-60
2024/01/30 05:27:59;;;;;;;61.50;35.50;;;;;;;1.19;67.54;100833.02;232017;204;153901;-58
2024/01/30 05:33:03;;;;;;;70.70;38.90;;;;;;;1.18;67.37;100832.12;231992;204;138148;-61
2024/01/30 05:38:07;;;;;;;62.00;36.00;;;;;;;1.14;67.32;100831.23;232151;204;138579;-61
2024/01/30 05:43:10;;;;;;;70.30;37.80;;;;;;;1.15;67.42;100827.55;231923;198;153048;-61
2024/01/30 05:48:13;;;;;;;64.00;36.30;;;;;;;1.13;67.46;100837.34;231956;201;137706;-61
2024/01/30 05:53:16;;;;;;;66.80;36.60;;;;;;;1.11;67.38;100832.60;231847;204;138576;-61
2024/01/30 05:58:19;;;;;;;64.10;36.30;;;;;;;1.08;67.63;100836.78;231935;197;155738;-61
2024/01/30 06:03:22;;;;;;;65.80;36.80;;;;;;;1.05;67.52;100838.19;231939;197;138616;-61
2024/01/30 06:08:26;;;;;;;66.60;37.50;;;;;;;1.02;67.64;100830.98;231970;204;139043;-61
2024/01/30 06:13:31;;;;;;;66.00;37.10;;;;;;;1.00;67.75;100839.55;232088;204;153613;-60
2024/01/30 06:18:34;;;;;;;;;;;;;;;1.07;67.72;100844.83;232153;198;138211;-60
2024/01/30 06:23:38;;;;;;;59.60;35.00;;;;;;;1.03;67.83;100844.27;232095;204;137751;-61
2024/01/30 06:28:41;;;;;;;61.30;35.60;;;;;;;1.07;67.67;100837.13;232000;204;153120;-63
2024/01/30 06:33:49;;;;;;;138.10;86.70;;;;;;;1.33;70.92;100838.48;231779;198;138802;-61
2024/01/30 06:38:52;;;;;;;70.20;39.90;;;;;;;1.51;67.96;100835.06;231997;198;138320;-61
2024/01/30 06:43:56;;;;;;;144.50;91.10;;;;;;;1.52;67.46;100834.20;231580;201;153481;-60
2024/01/30 06:48:59;;;;;;;73.70;41.70;;;;;;;1.53;67.35;100836.64;232063;197;138000;-61
2024/01/30 06:54:03;;;;;;;108.90;65.50;;;;;;;1.49;66.97;100841.35;232091;201;141645;-60
2024/01/30 06:59:06;;;;;;;70.00;39.90;;;;;;;1.48;67.47;100844.50;232070;197;153214;-61
2024/01/30 07:04:09;;;;;;;64.80;38.00;;;;;;;1.44;67.25;100841.34;231847;197;137786;-61
2024/01/30 07:09:13;;;;;;;60.50;36.30;;;;;;;1.43;67.48;100836.96;231826;202;138342;-62
2024/01/30 07:14:17;;;;;;;61.00;36.20;;;;;;;1.41;67.68;100828.21;231900;198;154917;-61
2024/01/30 07:19:20;;;;;;;62.50;37.20;;;;;;;1.37;67.94;100829.95;232046;201;138341;-62
2024/01/30 07:24:24;;;;;;;67.40;37.60;;;;;;;1.40;68.00;100834.33;232124;201;138567;-62
2024/01/30 07:29:27;;;;;;;72.40;40.40;;;;;;;1.42;68.36;100843.08;231925;204;153303;-63
2024/01/30 07:34:30;;;;;;;178.90;108.60;;;;;;;1.53;68.72;100841.37;231755;198;137938;-63
2024/01/30 07:39:36;;;;;;;67.00;39.30;;;;;;;1.65;68.70;100844.91;231659;198;138420;-63
2024/01/30 07:44:39;;;;;;;68.40;38.00;;;;;;;1.78;69.10;100840.22;231927;204;153753;-63
2024/01/30 07:49:43;;;;;;;64.20;37.40;;;;;;;1.91;68.60;100839.39;231880;202;138051;-64
2024/01/30 07:54:46;;;;;;;65.60;38.10;;;;;;;1.97;68.65;100836.08;232180;204;137768;-63
2024/01/30 07:59:49;;;;;;;71.20;39.60;;;;;;;2.11;68.62;100836.97;231964;204;154105;-64
2024/01/30 08:04:52;;;;;;;74.30;41.70;;;;;;;2.23;68.72;100833.83;231996;198;137336;-62
2024/01/30 08:09:56;;;;;;;76.60;41.60;;;;;;;2.41;68.83;100839.10;232035;198;138278;-62
2024/01/30 08:14:59;;;;;;;70.70;38.20;;;;;;;2.53;68.98;100838.05;231965;204;154640;-61
2024/01/30 08:20:04;;;;;;;67.10;39.20;;;;;;;2.63;69.04;100840.16;231996;198;138699;-62
2024/01/30 08:25:09;;;;;;;69.30;39.70;;;;;;;2.75;69.15;100838.56;231998;204;137303;-63
2024/01/30 08:30:13;;;;;;;76.90;41.50;;;;;;;2.86;69.19;100841.34;232095;197;153392;-63
2024/01/30 08:35:16;;;;;;;77.40;40.30;;;;;;;2.98;69.19;100843.78;231984;201;139932;-62
2024/01/30 08:40:20;;;;;;;82.50;42.50;;;;;;;3.10;69.38;100836.73;231866;197;137649;-64
2024/01/30 08:45:23;;;;;;;79.50;41.90;;;;;;;3.22;69.75;100839.52;231959;204;153487;-62
2024/01/30 08:50:27;;;;;;;79.10;42.50;;;;;;;3.43;69.55;100835.23;231939;204;139452;-61
2024/01/30 08:55:30;;;;;;;77.70;41.90;;;;;;;3.65;69.44;100834.25;231975;200;141061;-62
2024/01/30 09:00:34;;;;;;;74.20;42.30;;;;;;;3.78;68.97;100826.64;232043;204;154618;-62
2024/01/30 09:05:37;;;;;;;79.70;43.40;;;;;;;3.89;68.79;100826.92;231782;198;138884;-63
2024/01/30 09:10:40;;;;;;;73.30;39.80;;;;;;;4.02;68.74;100828.95;231745;205;139693;-59
2024/01/30 09:15:44;;;;;;;71.20;40.40;;;;;;;4.18;68.70;100826.04;231861;204;154208;-62
2024/01/30 09:20:47;;;;;;;75.20;42.70;;;;;;;4.34;68.56;100824.67;231709;198;138350;-62
2024/01/30 09:25:50;;;;;;;76.50;42.00;;;;;;;4.51;68.47;100818.74;231829;198;138579;-62
2024/01/30 09:30:54;;;;;;;72.50;39.10;;;;;;;4.70;68.31;100811.38;231926;204;153196;-62
2024/01/30 09:35:57;;;;;;;65.50;37.40;;;;;;;4.93;68.08;100803.05;231751;201;138304;-62
2024/01/30 09:41:06;;;;;;;139.50;93.80;;;;;;;5.24;67.97;100805.34;231352;197;138789;-59
2024/01/30 09:46:14;;;;;;;82.80;45.30;;;;;;;5.88;69.72;100799.06;231779;205;153273;-61
2024/01/30 09:51:20;;;;;;;64.60;38.70;;;;;;;6.04;66.91;100795.69;231779;205;138683;-61
2024/01/30 09:56:23;;;;;;;61.80;31.50;;;;;;;6.16;66.51;100791.98;231824;197;249974;-59
2024/01/30 10:01:27;;;;;;;105.70;73.40;;;;;;;6.31;64.13;100788.20;231776;198;154967;-61
2024/01/30 10:06:30;;;;;;;37.20;21.90;;;;;;;6.60;63.75;100778.35;232009;197;137600;-61
2024/01/30 10:11:33;;;;;;;26.20;15.90;;;;;;;6.85;60.48;100771.02;231947;200;142228;-61
2024/01/30 10:16:37;;;;;;;25.00;14.50;;;;;;;6.97;57.99;100765.67;231704;204;152948;-61
2024/01/30 10:21:40;;;;;;;27.90;15.50;;;;;;;7.18;57.69;100756.25;231750;198;137887;-62
2024/01/30 10:26:44;;;;;;;24.10;14.10;;;;;;;7.39;56.49;100748.92;231916;204;138769;-63
2024/01/30 10:32:01;;;;;;;24.20;13.90;;;;;;;7.60;55.32;100742.47;231751;198;153515;-60
2024/01/30 10:37:15;;;;;;;25.10;14.00;;;;;;;7.90;54.49;100736.64;231999;200;138364;-62
2024/01/30 10:42:19;;;;;;;536.30;369.60;;;;;;;8.20;54.23;100730.10;232249;205;138752;-68
2024/01/30 10:47:27;;;;;;;122.50;78.90;;;;;;;8.61;54.78;100721.98;231464;197;153878;-60
2024/01/30 10:52:32;;;;;;;34.80;20.20;;;;;;;8.94;54.06;100715.05;231760;198;139249;-61
2024/01/30 10:57:36;;;;;;;32.80;19.10;;;;;;;9.07;51.83;100708.48;231841;202;138213;-61
2024/01/30 11:02:41;;;;;;;31.00;19.00;;;;;;;9.21;51.49;100701.17;231590;202;153280;-61
2024/01/30 11:07:44;;;;;;;40.80;20.90;;;;;;;9.47;51.06;100695.06;231838;204;138818;-60
2024/01/30 11:12:50;;;;;;;34.90;19.70;;;;;;;9.69;50.64;100689.23;231997;202;140208;-60
2024/01/30 11:17:53;;;;;;;32.50;19.90;;;;;;;9.96;50.00;100684.64;231821;204;155166;-60
2024/01/30 11:22:57;;;;;;;38.50;19.50;;;;;;;10.14;48.94;100679.60;231810;202;138690;-60
2024/01/30 11:28:01;;;;;;;34.70;19.30;;;;;;;10.30;48.12;100677.48;231773;197;138416;-62
2024/01/30 11:33:06;;;;;;;27.60;17.90;;;;;;;10.51;47.89;100672.70;231822;197;154048;-61
2024/01/30 11:38:14;;;;;;;33.30;17.70;;;;;;;10.60;46.92;100665.96;231799;202;138625;-61
2024/01/30 11:43:18;;;;;;;35.30;18.30;;;;;;;10.78;46.61;100660.36;232010;205;141906;-59
2024/01/30 11:48:22;;;;;;;28.90;17.20;;;;;;;10.93;45.37;100659.25;231827;198;154396;-59
2024/01/30 11:53:25;;;;;;;35.40;18.40;;;;;;;11.08;45.70;100655.32;231821;198;138664;-58
2024/01/30 11:58:28;;;;;;;37.60;19.00;;;;;;;11.31;45.29;100649.47;231843;201;138815;-59
2024/01/30 12:03:32;;;;;;;27.20;15.10;;;;;;;11.55;44.22;100644.05;231755;198;153990;-58
2024/01/30 12:08:35;;;;;;;30.20;15.00;;;;;;;11.76;42.81;100633.61;231550;198;139262;-59
2024/01/30 12:13:38;;;;;;;27.40;15.30;;;;;;;12.05;43.05;100633.13;231772;201;138598;-58
2024/01/30 12:18:42;;;;;;;28.20;14.90;;;;;;;12.33;42.12;100624.63;231823;201;153120;-58
2024/01/30 12:23:45;;;;;;;28.60;15.20;;;;;;;12.57;41.07;100617.67;231670;198;138962;-60
2024/01/30 12:28:49;;;;;;;25.90;15.20;;;;;;;12.81;40.17;100615.91;231675;203;138672;-59
2024/01/30 12:33:53;;;;;;;33.70;17.60;;;;;;;12.93;40.16;100619.58;231668;198;153608;-59
2024/01/30 12:38:57;;;;;;;30.80;16.90;;;;;;;13.05;40.37;100612.98;231720;202;139155;-59
2024/01/30 12:44:01;;;;;;;30.30;18.20;;;;;;;13.07;40.73;100611.49;231615;201;138759;-60
2024/01/30 12:49:04;;;;;;;41.20;21.90;;;;;;;13.03;40.94;100615.40;231654;198;153118;-60
2024/01/30 12:54:08;;;;;;;50.00;29.20;;;;;;;12.96;43.10;100615.39;231834;198;138304;-59
2024/01/30 12:59:11;;;;;;;56.20;33.10;;;;;;;12.79;44.35;100612.79;231712;197;138286;-59
2024/01/30 13:04:15;;;;;;;238.00;150.20;;;;;;;12.58;45.79;100607.13;231677;198;153678;-60
2024/01/30 13:09:20;;;;;;;62.70;37.40;;;;;;;12.34;46.40;100601.08;231565;201;141360;-59
2024/01/30 13:14:24;;;;;;;61.60;37.90;;;;;;;12.04;46.90;100592.63;231665;203;138738;-60
2024/01/30 13:19:27;;;;;;;322.60;235.30;;;;;;;11.81;47.86;100588.23;231725;205;153208;-66
2024/01/30 13:24:31;;;;;;;70.60;42.40;;;;;;;12.25;54.70;100585.41;231792;204;140444;-56
2024/01/30 13:29:34;;;;;;;75.10;39.70;;;;;;;13.00;51.37;100583.27;231806;197;138847;-56
2024/01/30 13:34:37;;;;;;;65.20;40.30;;;;;;;13.41;50.13;100576.33;231761;198;153036;-57
2024/01/30 13:39:41;;;;;;;77.00;44.40;;;;;;;13.40;46.73;100577.64;231850;205;138156;-60
2024/01/30 13:44:45;;;;;;;66.20;40.30;;;;;;;12.82;46.19;100583.44;231689;202;138838;-60
2024/01/30 13:49:48;;;;;;;63.90;39.00;;;;;;;12.41;46.45;100582.24;231730;205;153367;-60
2024/01/30 13:54:51;;;;;;;65.70;37.10;;;;;;;12.15;46.59;100584.50;231952;205;139281;-60
2024/01/30 13:59:55;;;;;;;62.00;37.70;;;;;;;11.91;47.02;100583.55;231792;202;138113;-60
2024/01/30 14:04:58;;;;;;;67.30;38.40;;;;;;;11.69;47.55;100585.15;231775;205;153242;-60
2024/01/30 14:10:02;;;;;;;63.10;36.10;;;;;;;11.44;47.75;100578.91;231680;198;138491;-61
2024/01/30 14:15:10;;;;;;;175.80;115.80;;;;;;;11.20;47.95;100578.30;231915;197;154599;-61
2024/01/30 14:20:31;;;;;;;58.20;36.30;;;;;;;10.98;47.92;100576.65;231803;197;154889;-63
2024/01/30 14:25:34;;;;;;;66.10;36.80;;;;;;;10.77;48.30;100578.70;231791;201;138335;-61
2024/01/30 14:30:38;;;;;;;62.80;37.40;;;;;;;10.59;48.63;100577.43;231900;201;138624;-62
2024/01/30 14:35:41;;;;;;;68.90;37.00;;;;;;;10.44;48.96;100574.46;231749;204;153039;-62
2024/01/30 14:40:44;;;;;;;60.50;36.20;;;;;;;10.29;49.32;100571.81;231646;198;138324;-62
2024/01/30 14:45:49;;;;;;;66.60;36.60;;;;;;;10.13;49.47;100570.59;231900;204;138483;-62
2024/01/30 14:50:52;;;;;;;65.40;37.50;;;;;;;9.97;49.97;100571.48;231808;202;152949;-61
2024/01/30 14:55:56;;;;;;;67.40;36.30;;;;;;;9.81;50.63;100566.88;231796;198;138500;-62
2024/01/30 15:00:59;;;;;;;66.50;37.10;;;;;;;9.70;50.81;100567.46;231990;197;138443;-61
2024/01/30 15:06:04;;;;;;;61.80;34.60;;;;;;;9.56;50.90;100565.81;231837;197;154483;-61
2024/01/30 15:11:08;;;;;;;60.50;33.80;;;;;;;9.37;51.39;100566.60;231854;199;141869;-62
2024/01/30 15:16:11;;;;;;;59.80;36.70;;;;;;;9.19;52.29;100567.36;231848;202;138306;-62
2024/01/30 15:21:20;;;;;;;51.20;31.00;;;;;;;9.09;52.07;100571.39;231764;204;154832;-61
2024/01/30 15:26:23;;;;;;;79.10;36.00;;;;;;;8.88;52.20;100573.64;231989;201;138348;-62
2024/01/30 15:31:26;;;;;;;66.20;35.90;;;;;;;8.63;53.26;100569.42;232026;204;138057;-61
2024/01/30 15:36:30;;;;;;;64.80;33.80;;;;;;;8.43;53.55;100571.59;231952;204;153073;-61
2024/01/30 15:41:33;;;;;;;60.00;33.60;;;;;;;8.22;53.72;100576.21;231731;197;138627;-60
2024/01/30 15:46:37;;;;;;;66.00;35.20;;;;;;;8.12;54.34;100567.99;231369;201;138685;-61
2024/01/30 15:51:40;;;;;;;75.30;38.30;;;;;;;7.95;54.54;100567.42;231920;204;153948;-61
2024/01/30 15:56:43;;;;;;;61.10;34.20;;;;;;;7.79;54.90;100569.08;232028;201;138267;-62
2024/01/30 16:01:48;;;;;;;59.20;32.60;;;;;;;7.60;55.14;100562.50;232011;202;138443;-61
2024/01/30 16:06:52;;;;;;;56.60;33.70;;;;;;;7.48;56.29;100561.58;231915;204;153134;-61
2024/01/30 16:11:55;;;;;;;64.50;34.10;;;;;;;7.36;55.67;100555.50;231480;202;138257;-61
2024/01/30 16:16:59;;;;;;;66.10;33.70;;;;;;;7.18;55.85;100557.35;231616;202;137661;-61
2024/01/30 16:22:02;;;;;;;56.40;31.90;;;;;;;7.03;56.43;100555.74;231692;198;153385;-61
2024/01/30 16:27:06;;;;;;;60.90;33.80;;;;;;;6.90;56.46;100554.44;231697;204;138359;-62
2024/01/30 16:32:09;;;;;;;59.60;32.70;;;;;;;6.83;57.86;100555.85;231746;204;137284;-60
2024/01/30 16:37:12;;;;;;;61.80;32.40;;;;;;;6.75;57.26;100555.68;231878;198;155191;-61
2024/01/30 16:42:16;;;;;;;54.30;31.60;;;;;;;6.64;57.45;100559.26;231853;204;138064;-60
2024/01/30 16:47:20;;;;;;;57.80;31.60;;;;;;;6.53;57.51;100558.60;231814;198;137562;-59
2024/01/30 16:52:23;;;;;;;58.70;32.20;;;;;;;6.39;57.63;100558.54;231726;198;152952;-60
2024/01/30 16:57:27;;;;;;;51.50;30.00;;;;;;;6.25;57.80;100554.61;231587;204;138137;-60
2024/01/30 17:02:30;;;;;;;106.50;53.90;;;;;;;6.16;58.77;100550.73;231784;197;138136;-58
2024/01/30 17:07:35;;;;;;;67.20;34.80;;;;;;;6.17;58.67;100548.07;231680;198;153853;-59
2024/01/30 17:12:38;;;;;;;56.60;33.40;;;;;;;6.06;58.69;100551.44;231289;197;138698;-59
2024/01/30 17:17:42;;;;;;;55.60;33.20;;;;;;;5.93;58.90;100552.21;231411;202;138952;-59
2024/01/30 17:22:45;;;;;;;54.80;31.70;;;;;;;5.82;59.37;100553.09;231710;200;276145;-59
2024/01/30 17:27:49;;;;;;;57.20;31.90;;;;;;;5.71;59.48;100547.30;231812;198;138484;-59
2024/01/30 17:32:53;;;;;;;58.20;32.40;;;;;;;5.63;59.75;100544.98;231691;204;138494;-66
2024/01/30 17:37:56;;;;;;;65.50;38.50;;;;;;;5.59;60.65;100541.70;231570;203;154509;-60
2024/01/30 17:42:59;;;;;;;57.00;33.40;;;;;;;5.54;60.42;100544.98;231821;204;137944;-59
2024/01/30 17:48:04;;;;;;;51.80;31.50;;;;;;;5.45;60.30;100544.59;231722;203;138466;-59
2024/01/30 17:53:07;;;;;;;57.80;32.90;;;;;;;5.34;60.44;100540.90;231605;201;153264;-60
2024/01/30 17:58:11;;;;;;;57.00;30.80;;;;;;;5.23;60.58;100543.90;231656;202;138193;-59
2024/01/30 18:03:14;;;;;;;53.50;30.70;;;;;;;5.11;60.95;100543.89;231791;204;141307;-61
2024/01/30 18:08:17;;;;;;;49.60;29.70;;;;;;;5.02;61.21;100541.23;231966;204;153858;-61
2024/01/30 18:13:20;;;;;;;56.40;30.40;;;;;;;4.91;61.42;100540.70;231890;197;137298;-62
2024/01/30 18:18:25;;;;;;;63.10;33.00;;;;;;;4.78;61.58;100545.27;232042;198;139241;-59
2024/01/30 18:23:33;;;;;;;100.20;64.70;;;;;;;4.71;62.16;100551.88;231795;201;154037;-59
2024/01/30 18:28:37;;;;;;;94.30;54.10;;;;;;;4.76;63.76;100548.98;231828;198;138555;-60
2024/01/30 18:33:40;;;;;;;57.60;32.50;;;;;;;4.78;62.17;100544.23;231876;197;137613;-59
2024/01/30 18:38:43;;;;;;;64.20;32.50;;;;;;;4.64;62.15;100550.03;231900;202;154470;-61
2024/01/30 18:43:47;;;;;;;56.20;32.10;;;;;;;4.53;62.25;100544.91;231949;198;138371;-60
2024/01/30 18:48:50;;;;;;;57.40;32.20;;;;;;;4.43;62.39;100545.91;231892;200;137931;-59
2024/01/30 18:53:53;;;;;;;64.70;34.60;;;;;;;4.33;62.44;100550.95;231809;197;153193;-60
2024/01/30 18:58:57;;;;;;;62.50;34.30;;;;;;;4.22;62.63;100555.84;231714;199;138483;-60
2024/01/30 19:04:00;;;;;;;63.90;34.50;;;;;;;4.14;62.91;100558.04;231818;198;138405;-61
2024/01/30 19:09:07;;;;;;;68.50;40.40;;;;;;;4.10;63.52;100557.20;231880;204;153410;-61
2024/01/30 19:14:11;;;;;;;68.10;36.90;;;;;;;4.11;63.99;100557.38;231754;200;137639;-60
2024/01/30 19:19:14;;;;;;;67.20;36.40;;;;;;;4.07;63.33;100555.30;231734;198;138755;-57
2024/01/30 19:24:17;;;;;;;69.50;36.20;;;;;;;3.99;63.36;100556.45;231924;197;153861;-58
2024/01/30 19:29:20;;;;;;;69.10;37.90;;;;;;;3.91;63.48;100562.50;231742;197;142119;-59
2024/01/30 19:34:23;;;;;;;75.60;40.10;;;;;;;3.87;63.43;100559.73;231839;197;138620;-59
2024/01/30 19:39:27;;;;;;;67.70;38.70;;;;;;;3.81;63.56;100560.84;231838;204;153037;-59
2024/01/30 19:44:31;;;;;;;69.30;37.80;;;;;;;3.75;63.72;100559.85;231823;202;138380;-62
2024/01/30 19:49:39;;;;;;;63.80;36.90;;;;;;;3.69;63.98;100559.56;231880;201;137981;-62
2024/01/30 19:54:42;;;;;;;70.00;39.90;;;;;;;3.67;64.11;100552.56;231866;201;153353;-59
2024/01/30 19:59:45;;;;;;;66.10;37.50;;;;;;;3.62;64.06;100553.48;231820;204;138055;-60
2024/01/30 20:04:49;;;;;;;68.30;39.30;;;;;;;3.55;64.18;100556.18;231813;201;142324;-59
2024/01/30 20:09:52;;;;;;;71.00;36.80;;;;;;;3.48;64.32;100557.98;231813;198;153259;-60
2024/01/30 20:14:56;;;;;;;73.70;39.10;;;;;;;3.42;64.57;100560.16;231897;198;138273;-61
2024/01/30 20:19:59;;;;;;;73.60;39.80;;;;;;;3.39;64.63;100560.52;231923;198;138606;-59
2024/01/30 20:25:04;;;;;;;232.80;149.20;;;;;;;3.46;66.44;100561.86;232039;204;153350;-62
2024/01/30 20:30:22;;;;;;;83.40;42.80;;;;;;;3.62;66.87;100559.61;231907;197;138964;-61
2024/01/30 20:35:26;;;;;;;67.60;39.30;;;;;;;3.60;64.69;100558.77;231717;204;138258;-61
2024/01/30 20:40:29;;;;;;;70.00;39.70;;;;;;;3.53;64.51;100557.41;231809;198;153830;-59
2024/01/30 20:45:32;;;;;;;63.00;36.50;;;;;;;3.48;64.51;100554.48;231589;198;137424;-59
2024/01/30 20:50:36;;;;;;;66.90;38.60;;;;;;;3.46;64.67;100552.56;231694;203;138358;-60
2024/01/30 20:55:39;;;;;;;70.30;38.10;;;;;;;3.42;64.82;100550.14;231810;198;152978;-59
2024/01/30 21:00:43;;;;;;;79.70;45.90;;;;;;;3.43;64.70;100549.98;231934;204;138187;-62
2024/01/30 21:05:46;;;;;;;79.30;43.70;;;;;;;3.40;64.66;100552.45;231682;201;137886;-62
2024/01/30 21:10:49;;;;;;;78.70;41.70;;;;;;;3.46;64.49;100546.27;231692;198;152974;-60
2024/01/30 21:15:53;;;;;;;74.50;42.10;;;;;;;3.45;64.42;100544.33;231666;204;139034;-60
2024/01/30 21:20:57;;;;;;;240.00;154.50;;;;;;;3.51;66.24;100539.55;231641;201;138172;-60
2024/01/30 21:26:03;;;;;;;81.70;47.40;;;;;;;3.71;65.58;100534.08;231780;197;154853;-63
2024/01/30 21:31:10;;;;;;;76.30;42.40;;;;;;;3.61;64.22;100535.06;231818;201;137475;-62
2024/01/30 21:36:13;;;;;;;70.80;39.40;;;;;;;3.45;64.28;100529.77;231892;198;138810;-61
2024/01/30 21:41:17;;;;;;;70.20;41.00;;;;;;;3.31;64.48;100533.75;231685;201;153459;-61
2024/01/30 21:46:26;;;;;;;72.90;42.00;;;;;;;3.22;64.75;100535.77;231677;203;138406;-61
2024/01/30 21:51:30;;;;;;;67.60;38.50;;;;;;;3.13;64.90;100537.40;231599;202;138349;-61
2024/01/30 21:56:33;;;;;;;70.90;40.10;;;;;;;3.06;65.06;100539.21;231781;198;154826;-61
2024/01/30 22:01:37;;;;;;;68.20;38.80;;;;;;;3.02;65.24;100537.84;231644;198;138409;-61
2024/01/30 22:06:40;;;;;;;74.10;39.50;;;;;;;2.98;65.23;100542.77;231769;197;138866;-61
2024/01/30 22:11:43;;;;;;;72.90;40.90;;;;;;;2.98;65.20;100543.83;231534;198;155102;-60
2024/01/30 22:16:46;;;;;;;73.40;42.20;;;;;;;2.95;65.25;100544.55;231560;202;138480;-60
2024/01/30 22:21:49;;;;;;;75.80;41.50;;;;;;;2.89;65.30;100541.09;231622;205;137537;-60
2024/01/30 22:26:53;;;;;;;76.50;41.30;;;;;;;2.84;65.51;100539.35;231656;202;153380;-61
2024/01/30 22:31:56;;;;;;;69.00;39.80;;;;;;;2.81;65.57;100539.38;231700;198;137869;-61
2024/01/30 22:36:59;;;;;;;69.60;40.20;;;;;;;2.78;65.80;100545.71;231865;205;138102;-61
2024/01/30 22:42:03;;;;;;;73.70;40.60;;;;;;;2.74;65.90;100557.46;231620;198;153539;-61
2024/01/30 22:47:06;;;;;;;72.30;39.70;;;;;;;2.69;65.99;100561.52;231611;198;138649;-60
2024/01/30 22:52:10;;;;;;;76.10;41.10;;;;;;;2.67;66.08;100563.64;231597;202;138423;-60
2024/01/30 22:57:13;;;;;;;80.40;43.10;;;;;;;2.85;65.67;100562.14;231495;202;155466;-60